»·PEaware :: RNGR707 KNGP-KNGP

RNGR707 :: KNGP-KNGP

FLIGHT INFORMATION

Flight Status: Arrived
Operator: Unknown
More flights by this operator :: More flights under this callsign
Pilot: USN Avenger (31125)
Aircraft: BEECH AIRCRAFT T-6A TEXAN
(TEX2)
More flights by this aircraft type
Origin: KNGP Corpus Christi NAS/Truax
United States
Destination: KNGP Corpus Christi NAS/Truax
United States
More flights between these airports :: More routes between these airports
Route: KNGT KTFP
File this flight plan on PilotEdge
Remarks: SOUTH FLOW RUSTY KNGT KTFP
Altitude:
(Current/Filed)
5,500ft
Speed:
(Current/Filed)
240kts
Departed: 16-Nov-23 06:48 AM
Arrived: 16-Nov-23 07:49 AM
Distance/Time
Traveled:
0nm/1:01
Distance/Time
To Go:
Arrived

Flight Plot

Page will automatically refresh every two minutes.

Flight plan parsing failed; only flown route is shown


Map Options




Map Legend


Flown Route
Filed Route
Departure Airport
Arrival Airport
Navaid (VOR, NDB)
Fix

Horizontal Profiles

Position Reports

Time Latitude Longitude Heading Altitude Ground
Speed
16-Nov-23 06:34 27.698543 -97.284285 159 22ft 0kts
16-Nov-23 06:35 27.698541 -97.284284 159 22ft 0kts
16-Nov-23 06:36 27.698539 -97.284283 159 22ft 0kts
16-Nov-23 06:37 27.698537 -97.284282 159 22ft 0kts
16-Nov-23 06:38 27.698535 -97.284281 159 22ft 0kts
16-Nov-23 06:39 27.698533 -97.284281 159 22ft 0kts
16-Nov-23 06:41 27.698532 -97.284280 159 22ft 0kts
16-Nov-23 06:42 27.698408 -97.284322 243 22ft 3kts
16-Nov-23 06:43 27.699414 -97.286503 229 22ft 8kts
16-Nov-23 06:44 27.696404 -97.290295 230 22ft 14kts
16-Nov-23 06:45 27.695749 -97.291048 223 22ft 0kts
16-Nov-23 06:46 27.695747 -97.291050 223 22ft 0kts
16-Nov-23 06:47 27.694890 -97.291370 138 22ft 6kts
16-Nov-23 06:48 27.673121 -97.264685 127 591ft 189kts
16-Nov-23 06:49 27.658610 -97.217008 31 849ft 192kts
16-Nov-23 06:50 27.710336 -97.220014 357 2681ft 215kts
16-Nov-23 06:51 27.776631 -97.232988 351 2795ft 248kts
16-Nov-23 06:52 27.844761 -97.245805 353 2605ft 250kts
16-Nov-23 06:53 27.908152 -97.259822 346 4503ft 201kts
16-Nov-23 06:54 27.957230 -97.297355 323 5852ft 238kts
16-Nov-23 06:55 28.014781 -97.345395 325 5667ft 259kts
16-Nov-23 06:56 28.072804 -97.390397 329 5795ft 245kts
16-Nov-23 06:57 28.134144 -97.430201 332 5458ft 251kts
16-Nov-23 06:58 28.192841 -97.472850 325 5457ft 247kts
16-Nov-23 06:59 28.249186 -97.513129 331 6059ft 240kts
16-Nov-23 07:00 28.312371 -97.547126 338 5905ft 243kts
16-Nov-23 07:01 28.375722 -97.573683 341 6166ft 246kts
16-Nov-23 07:02 28.439788 -97.556882 53 3961ft 264kts
16-Nov-23 07:03 28.436399 -97.487590 118 2492ft 207kts
16-Nov-23 07:04 28.392506 -97.442857 147 2929ft 221kts
16-Nov-23 07:05 28.336300 -97.407682 150 2817ft 233kts
16-Nov-23 07:06 28.281509 -97.367768 147 2779ft 234kts
16-Nov-23 07:07 28.223047 -97.334311 148 2811ft 232kts
16-Nov-23 07:08 28.168499 -97.295475 142 2823ft 235kts
16-Nov-23 07:09 28.118637 -97.244889 135 2128ft 255kts
16-Nov-23 07:10 28.058000 -97.219464 181 1289ft 240kts
16-Nov-23 07:11 27.997934 -97.226801 185 1074ft 204kts
16-Nov-23 07:11 27.950792 -97.234888 183 1292ft 208kts
16-Nov-23 07:12 27.906610 -97.203032 142 1144ft 195kts
16-Nov-23 07:13 27.922427 -97.202696 310 836ft 120kts
16-Nov-23 07:15 27.920629 -97.219840 121 121ft 132kts
16-Nov-23 07:16 27.896580 -97.194068 80 543ft 109kts
16-Nov-23 07:16 27.917312 -97.204136 314 821ft 130kts
16-Nov-23 07:17 27.922707 -97.224422 112 160ft 114kts
16-Nov-23 07:18 27.900836 -97.198352 104 669ft 115kts
16-Nov-23 07:19 27.923994 -97.205868 315 892ft 136kts
16-Nov-23 07:21 27.917132 -97.215502 133 36ft 92kts
16-Nov-23 07:22 27.909347 -97.193124 357 982ft 122kts
16-Nov-23 07:22 27.929106 -97.220284 262 773ft 126kts
16-Nov-23 07:23 27.909198 -97.208229 139 333ft 111kts
16-Nov-23 07:24 27.920872 -97.202605 311 836ft 128kts
16-Nov-23 07:25 27.923580 -97.221675 133 184ft 104kts
16-Nov-23 07:26 27.904425 -97.197865 70 860ft 123kts
16-Nov-23 07:27 27.929073 -97.215116 316 940ft 114kts
16-Nov-23 07:28 27.914308 -97.212775 134 22ft 86kts
16-Nov-23 07:29 27.909253 -97.192982 335 887ft 121kts
16-Nov-23 07:30 27.931570 -97.221871 283 857ft 110kts
16-Nov-23 07:31 27.913177 -97.211581 135 22ft 84kts
16-Nov-23 07:32 27.907359 -97.190566 351 950ft 121kts
16-Nov-23 07:34 27.937107 -97.224358 306 861ft 133kts
16-Nov-23 07:34 27.952747 -97.255091 284 850ft 135kts
16-Nov-23 07:35 27.970389 -97.293543 303 1696ft 151kts
16-Nov-23 07:36 27.986572 -97.338867 256 2457ft 159kts
16-Nov-23 07:37 27.954896 -97.319903 126 2107ft 203kts
16-Nov-23 07:38 27.916584 -97.266877 128 2218ft 227kts
16-Nov-23 07:39 27.876629 -97.214543 131 1251ft 210kts
16-Nov-23 07:40 27.836779 -97.167562 99 1190ft 207kts
16-Nov-23 07:41 27.792879 -97.148823 206 1392ft 224kts
16-Nov-23 07:42 27.749593 -97.199016 261 1338ft 216kts
16-Nov-23 07:43 27.739341 -97.265319 255 1059ft 221kts
16-Nov-23 07:44 27.704336 -97.306894 144 1191ft 201kts
16-Nov-23 07:45 27.670690 -97.296941 312 1025ft 137kts
16-Nov-23 07:46 27.695856 -97.323805 338 857ft 104kts
16-Nov-23 07:47 27.700287 -97.300977 129 47ft 98kts
16-Nov-23 07:48 27.694081 -97.292602 46 22ft 0kts

Navigation Log

Ident Type
Flight plan parsing failed, navigation log unavailable